createdAt,value
2018-08-25T00:00:33.999Z,99.90
2018-08-25T00:03:02.072Z,99.90
2018-08-25T00:05:29.941Z,99.90
2018-08-25T00:07:57.451Z,99.90
2018-08-25T00:10:24.985Z,99.90
2018-08-25T00:12:52.751Z,99.90
2018-08-25T00:15:20.947Z,99.90
2018-08-25T00:17:48.427Z,99.90
2018-08-25T00:20:15.929Z,99.90
2018-08-25T00:22:44.239Z,99.90
2018-08-25T00:25:11.758Z,99.90
2018-08-25T00:27:39.771Z,99.90
2018-08-25T00:30:11.843Z,99.90
2018-08-25T00:32:39.700Z,99.90
2018-08-25T00:35:07.205Z,99.90
2018-08-25T00:37:34.740Z,99.90
2018-08-25T00:40:02.255Z,99.90
2018-08-25T00:42:29.771Z,99.90
2018-08-25T00:44:58.261Z,99.90
2018-08-25T00:47:25.746Z,99.90
2018-08-25T00:49:53.252Z,99.90
2018-08-25T00:52:21.143Z,99.90
2018-08-25T00:54:48.659Z,99.90
2018-08-25T00:57:16.197Z,99.90
2018-08-25T00:59:44.060Z,99.90
2018-08-25T01:02:12.113Z,99.90
2018-08-25T01:04:39.612Z,99.90
2018-08-25T01:07:07.124Z,99.90
2018-08-25T01:09:34.664Z,99.90
2018-08-25T01:12:02.499Z,99.90
2018-08-25T01:14:30.449Z,99.90
2018-08-25T01:16:58.653Z,99.90
2018-08-25T01:19:26.133Z,99.90
2018-08-25T01:21:54.260Z,99.90
2018-08-25T01:24:21.836Z,99.90
2018-08-25T01:26:50.004Z,99.90
2018-08-25T01:29:17.507Z,99.90
2018-08-25T01:31:45.295Z,99.90
2018-08-25T01:34:12.830Z,99.90
2018-08-25T01:36:40.324Z,99.90
2018-08-25T01:39:08.775Z,99.90
2018-08-25T01:41:37.319Z,99.90
2018-08-25T01:44:05.333Z,99.90
2018-08-25T01:46:33.819Z,99.90
2018-08-25T01:49:01.751Z,99.90
2018-08-25T01:51:29.547Z,99.90
2018-08-25T01:53:57.054Z,99.90
2018-08-25T01:56:24.586Z,99.90
2018-08-25T01:58:53.303Z,99.90
2018-08-25T02:01:21.229Z,99.90
2018-08-25T02:03:48.821Z,99.40
2018-08-25T02:06:16.359Z,95.10
2018-08-25T02:08:43.879Z,98.10
2018-08-25T02:11:12.003Z,99.90
2018-08-25T02:13:39.843Z,97.60
2018-08-25T02:16:07.940Z,98.50
2018-08-25T02:18:35.832Z,97.50
2018-08-25T02:21:03.756Z,96.30
2018-08-25T02:23:31.347Z,97.60
2018-08-25T02:25:59.555Z,97.80
2018-08-25T02:28:27.060Z,99.30
2018-08-25T02:30:54.542Z,98.60
2018-08-25T02:33:22.539Z,99.20
2018-08-25T02:35:50.043Z,97.60
2018-08-25T02:38:17.613Z,98.10
2018-08-25T02:40:45.620Z,98.10
2018-08-25T02:43:13.160Z,96.40
2018-08-25T02:45:41.884Z,97.20
2018-08-25T02:48:09.571Z,96.10
2018-08-25T02:50:37.058Z,97.70
2018-08-25T02:53:04.889Z,97.60
2018-08-25T02:55:32.957Z,96.50
2018-08-25T02:58:00.839Z,97.00
2018-08-25T03:00:28.891Z,97.00
2018-08-25T03:02:56.412Z,96.60
2018-08-25T03:05:24.359Z,96.50
2018-08-25T03:07:52.724Z,96.00
2018-08-25T03:10:20.249Z,97.70
2018-08-25T03:12:48.167Z,96.70
2018-08-25T03:15:16.020Z,96.70
2018-08-25T03:17:43.891Z,96.20
2018-08-25T03:20:11.390Z,96.70
2018-08-25T03:22:38.910Z,97.40
2018-08-25T03:25:06.526Z,95.90
2018-08-25T03:27:34.023Z,96.70
2018-08-25T03:30:01.607Z,95.70
2018-08-25T03:32:30.017Z,96.70
2018-08-25T03:34:57.515Z,96.70
2018-08-25T03:37:25.095Z,96.50
2018-08-25T03:39:53.235Z,96.10
2018-08-25T03:42:20.751Z,96.50
2018-08-25T03:44:48.663Z,95.30
2018-08-25T03:47:16.161Z,95.90
2018-08-25T03:49:43.643Z,97.10
2018-08-25T03:52:12.049Z,97.10
2018-08-25T03:54:40.004Z,97.00
2018-08-25T03:57:07.607Z,96.20
2018-08-25T03:59:35.669Z,96.40
2018-08-25T04:02:03.567Z,96.80
2018-08-25T04:04:31.460Z,97.50
2018-08-25T04:06:59.604Z,98.30
2018-08-25T04:09:27.143Z,99.00
2018-08-25T04:11:55.132Z,99.00
2018-08-25T04:14:23.028Z,99.10
2018-08-25T04:16:51.076Z,99.30
2018-08-25T04:19:20.126Z,98.90
2018-08-25T04:21:48.109Z,99.10
2018-08-25T04:24:15.679Z,99.90
2018-08-25T04:26:43.803Z,99.90
2018-08-25T04:29:11.494Z,99.90
2018-08-25T04:31:39.393Z,99.90
2018-08-25T04:34:06.919Z,99.90
2018-08-25T04:36:35.421Z,99.90
2018-08-25T04:39:04.437Z,99.90
2018-08-25T04:41:32.461Z,99.90
2018-08-25T04:43:59.943Z,99.90
2018-08-25T04:46:28.095Z,99.90
2018-08-25T04:48:55.663Z,98.60
2018-08-25T04:51:23.580Z,99.70
2018-08-25T04:53:51.468Z,99.90
2018-08-25T04:56:18.964Z,99.90
2018-08-25T04:58:46.479Z,99.90
2018-08-25T05:01:14.407Z,99.90
2018-08-25T05:03:42.492Z,99.60
2018-08-25T05:06:10.044Z,99.90
2018-08-25T05:08:37.551Z,99.60
2018-08-25T05:11:05.782Z,99.80
2018-08-25T05:13:33.711Z,99.30
2018-08-25T05:16:01.540Z,99.40
2018-08-25T05:18:29.036Z,99.30
2018-08-25T05:20:57.008Z,99.90
2018-08-25T05:23:25.159Z,99.20
2018-08-25T05:25:52.644Z,99.30
2018-08-25T05:28:20.176Z,99.10
2018-08-25T05:30:47.708Z,99.20
2018-08-25T05:33:16.022Z,98.20
2018-08-25T05:35:43.532Z,98.30
2018-08-25T05:38:11.179Z,98.10
2018-08-25T05:40:39.116Z,98.10
2018-08-25T05:43:06.633Z,98.40
2018-08-25T05:45:34.548Z,97.90
2018-08-25T05:48:02.127Z,97.20
2018-08-25T05:50:29.992Z,98.00
2018-08-25T05:52:57.855Z,98.10
2018-08-25T05:55:25.344Z,98.60
2018-08-25T05:57:53.524Z,99.30
2018-08-25T06:00:22.897Z,99.10
2018-08-25T06:02:50.527Z,99.30
2018-08-25T06:05:18.631Z,97.80
2018-08-25T06:07:46.473Z,98.70
2018-08-25T06:10:14.392Z,98.60
2018-08-25T06:12:42.376Z,97.90
2018-08-25T06:15:10.311Z,98.20
2018-08-25T06:17:37.876Z,97.80
2018-08-25T06:20:05.425Z,99.30
2018-08-25T06:22:32.991Z,99.10
2018-08-25T06:25:00.511Z,99.30
2018-08-25T06:27:28.112Z,99.90
2018-08-25T06:29:55.671Z,99.00
2018-08-25T06:32:23.592Z,99.50
2018-08-25T06:34:51.415Z,99.10
2018-08-25T06:37:19.352Z,99.90
2018-08-25T06:39:46.843Z,99.90
2018-08-25T06:42:14.335Z,99.50
2018-08-25T06:44:43.084Z,99.30
2018-08-25T06:47:10.919Z,99.60
2018-08-25T06:49:38.815Z,99.90
2018-08-25T06:52:06.671Z,99.90
2018-08-25T06:54:34.175Z,99.80
2018-08-25T06:57:02.136Z,99.10
2018-08-25T06:59:30.291Z,99.30
2018-08-25T07:01:58.574Z,99.90
2018-08-25T07:04:26.084Z,99.90
2018-08-25T07:06:53.911Z,99.90
2018-08-25T07:09:21.805Z,99.90
2018-08-25T07:11:49.660Z,99.00
2018-08-25T07:14:17.179Z,99.40
2018-08-25T07:16:44.988Z,99.60
2018-08-25T07:19:12.500Z,98.20
2018-08-25T07:21:39.999Z,97.40
2018-08-25T07:24:07.843Z,97.50
2018-08-25T07:26:35.351Z,96.80
2018-08-25T07:29:02.965Z,97.80
2018-08-25T07:31:31.109Z,95.80
2018-08-25T07:33:59.264Z,95.00
2018-08-25T07:36:26.809Z,96.80
2018-08-25T07:38:54.335Z,96.90
2018-08-25T07:41:22.256Z,96.50
2018-08-25T07:43:49.875Z,96.30
2018-08-25T07:46:18.030Z,98.90
2018-08-25T07:48:45.598Z,98.30
2018-08-25T07:51:13.447Z,97.80
2018-08-25T07:53:41.331Z,97.70
2018-08-25T07:56:09.372Z,97.70
2018-08-25T07:58:36.988Z,97.20
2018-08-25T08:01:05.596Z,96.80
2018-08-25T08:03:33.924Z,97.20
2018-08-25T08:06:01.807Z,96.50
2018-08-25T08:08:29.415Z,97.50
2018-08-25T08:10:56.923Z,96.80
2018-08-25T08:13:25.036Z,96.00
2018-08-25T08:15:52.987Z,95.60
2018-08-25T08:18:20.535Z,96.00
2018-08-25T08:20:48.084Z,97.20
2018-08-25T08:23:15.613Z,96.40
2018-08-25T08:25:43.669Z,96.30
2018-08-25T08:28:11.243Z,96.50
2018-08-25T08:30:38.801Z,95.50
2018-08-25T08:33:08.939Z,94.70
2018-08-25T08:35:36.712Z,95.20
2018-08-25T08:38:04.299Z,95.60
2018-08-25T08:40:31.819Z,94.10
2018-08-25T08:42:59.967Z,95.00
2018-08-25T08:45:27.895Z,94.30
2018-08-25T08:47:56.027Z,93.80
2018-08-25T08:50:23.996Z,92.60
2018-08-25T08:52:51.830Z,91.60
2018-08-25T08:55:19.751Z,93.20
2018-08-25T08:57:47.707Z,92.40
2018-08-25T09:00:15.502Z,91.10
2018-08-25T09:02:43.339Z,90.40
2018-08-25T09:05:10.944Z,88.40
2018-08-25T09:07:38.779Z,90.90
2018-08-25T09:10:06.871Z,89.50
2018-08-25T09:12:35.211Z,88.50
2018-08-25T09:15:02.774Z,88.70
2018-08-25T09:17:31.924Z,88.10
2018-08-25T09:19:59.503Z,87.70
2018-08-25T09:22:28.211Z,89.30
2018-08-25T09:24:55.731Z,88.30
2018-08-25T09:27:23.426Z,87.40
2018-08-25T09:29:51.663Z,86.60
2018-08-25T09:32:19.563Z,84.80
2018-08-25T09:34:47.070Z,86.20
2018-08-25T09:37:14.577Z,88.10
2018-08-25T09:39:42.799Z,85.60
2018-08-25T09:42:10.625Z,85.50
2018-08-25T09:44:38.508Z,85.70
2018-08-25T09:47:06.817Z,85.70
2018-08-25T09:49:34.265Z,86.10
2018-08-25T09:52:02.364Z,85.10
2018-08-25T09:54:30.188Z,82.10
2018-08-25T09:56:57.791Z,83.50
2018-08-25T09:59:25.748Z,82.20
2018-08-25T10:01:58.379Z,81.80
2018-08-25T10:04:25.997Z,75.70
2018-08-25T10:06:54.462Z,77.50
2018-08-25T10:09:22.520Z,77.60
2018-08-25T10:11:50.300Z,78.00
2018-08-25T10:14:17.828Z,79.90
2018-08-25T10:16:45.895Z,80.20
2018-08-25T10:19:13.981Z,78.60
2018-08-25T10:21:41.511Z,79.90
2018-08-25T10:24:09.391Z,79.30
2018-08-25T10:26:37.764Z,73.90
2018-08-25T10:29:06.504Z,74.90
2018-08-25T10:31:34.520Z,73.20
2018-08-25T10:34:02.468Z,74.20
2018-08-25T10:36:31.036Z,74.10
2018-08-25T10:38:59.232Z,74.60
2018-08-25T10:41:26.798Z,77.70
2018-08-25T10:43:54.311Z,75.90
2018-08-25T10:46:22.305Z,76.10
2018-08-25T10:48:50.249Z,75.00
2018-08-25T10:51:18.156Z,75.90
2018-08-25T10:53:46.077Z,75.10
2018-08-25T10:56:13.596Z,76.10
2018-08-25T10:58:41.391Z,76.70
2018-08-25T11:01:08.986Z,74.20
2018-08-25T11:03:36.791Z,76.40
2018-08-25T11:06:04.469Z,76.20
2018-08-25T11:08:32.648Z,77.40
2018-08-25T11:11:00.179Z,76.30
2018-08-25T11:13:28.152Z,77.20
2018-08-25T11:15:56.690Z,76.30
2018-08-25T11:18:24.199Z,76.90
2018-08-25T11:20:52.427Z,76.50
2018-08-25T11:23:19.924Z,78.20
2018-08-25T11:25:47.772Z,75.10
2018-08-25T11:28:15.303Z,76.70
2018-08-25T11:30:42.847Z,74.30
2018-08-25T11:33:10.694Z,76.50
2018-08-25T11:35:38.567Z,77.90
2018-08-25T11:38:06.104Z,78.00
2018-08-25T11:40:33.720Z,77.80
2018-08-25T11:43:01.253Z,77.70
2018-08-25T11:45:29.334Z,79.00
2018-08-25T11:47:57.442Z,77.70
2018-08-25T11:50:25.077Z,77.90
2018-08-25T11:52:52.945Z,78.30
2018-08-25T11:55:20.823Z,78.80
2018-08-25T11:57:48.353Z,77.40
2018-08-25T12:00:15.940Z,78.90
2018-08-25T12:02:44.371Z,79.00
2018-08-25T12:05:12.364Z,82.00
2018-08-25T12:07:40.539Z,82.10
2018-08-25T12:10:08.116Z,82.50
2018-08-25T12:12:36.312Z,82.70
2018-08-25T12:15:04.799Z,84.40
2018-08-25T12:17:32.729Z,82.50
2018-08-25T12:20:00.772Z,81.60
2018-08-25T12:22:28.839Z,83.10
2018-08-25T12:24:56.392Z,82.50
2018-08-25T12:27:23.900Z,84.20
2018-08-25T12:29:52.043Z,85.20
2018-08-25T12:32:20.155Z,84.80
2018-08-25T12:34:48.867Z,84.50
2018-08-25T12:37:17.659Z,84.60
2018-08-25T12:39:45.435Z,82.00
2018-08-25T12:42:12.915Z,82.90
2018-08-25T12:44:40.990Z,83.10
2018-08-25T12:47:09.101Z,84.00
2018-08-25T12:49:36.671Z,83.80
2018-08-25T12:52:04.584Z,84.70
2018-08-25T12:54:32.102Z,86.80
2018-08-25T12:56:59.587Z,86.70
2018-08-25T12:59:28.315Z,85.80
2018-08-25T13:01:55.901Z,86.10
2018-08-25T13:04:23.404Z,87.30
2018-08-25T13:06:51.739Z,88.00
2018-08-25T13:09:19.575Z,87.20
2018-08-25T13:11:47.582Z,87.20
2018-08-25T13:14:15.103Z,86.40
2018-08-25T13:16:42.992Z,86.60
2018-08-25T13:19:10.893Z,87.70
2018-08-25T13:21:39.107Z,88.30
2018-08-25T13:24:07.443Z,86.60
2018-08-25T13:26:34.951Z,86.80
2018-08-25T13:29:02.803Z,86.70
2018-08-25T13:31:30.839Z,88.50
2018-08-25T13:33:58.348Z,88.80
2018-08-25T13:36:25.858Z,88.60
2018-08-25T13:38:53.414Z,88.40
2018-08-25T13:41:21.445Z,90.00
2018-08-25T13:43:48.932Z,90.00
2018-08-25T13:46:17.381Z,90.30
2018-08-25T13:48:44.925Z,87.90
2018-08-25T13:51:12.745Z,89.10
2018-08-25T13:53:40.855Z,90.30
2018-08-25T13:56:09.060Z,89.70
2018-08-25T13:58:36.575Z,90.10
2018-08-25T14:01:04.516Z,90.80
2018-08-25T14:03:32.060Z,90.90
2018-08-25T14:05:59.596Z,89.80
2018-08-25T14:08:27.400Z,91.70
2018-08-25T14:10:54.771Z,92.80
2018-08-25T14:13:23.012Z,94.00
2018-08-25T14:15:50.987Z,94.50
2018-08-25T14:18:18.853Z,94.40
2018-08-25T14:20:46.934Z,94.90
2018-08-25T14:23:14.894Z,94.10
2018-08-25T14:25:42.935Z,92.60
2018-08-25T14:28:11.671Z,93.50
2018-08-25T14:30:39.655Z,93.10
2018-08-25T14:33:07.833Z,92.40
2018-08-25T14:35:35.481Z,91.40
2018-08-25T14:38:03.119Z,92.30
2018-08-25T14:40:31.068Z,93.10
2018-08-25T14:42:58.876Z,92.00
2018-08-25T14:45:26.812Z,93.00
2018-08-25T14:47:54.711Z,91.80
2018-08-25T14:50:23.398Z,93.00
2018-08-25T14:52:51.284Z,93.40
2018-08-25T14:55:18.796Z,93.60
2018-08-25T14:57:46.961Z,93.00
2018-08-25T15:00:14.476Z,92.50
2018-08-25T15:02:41.987Z,91.90
2018-08-25T15:05:09.532Z,91.70
2018-08-25T15:07:37.109Z,91.90
2018-08-25T15:10:05.772Z,92.60
2018-08-25T15:12:34.565Z,93.80
2018-08-25T15:15:02.934Z,93.70
2018-08-25T15:17:30.783Z,92.70
2018-08-25T15:19:58.644Z,92.40
2018-08-25T15:22:26.147Z,92.10
2018-08-25T15:24:53.695Z,92.80
2018-08-25T15:27:21.812Z,92.30
2018-08-25T15:29:49.716Z,93.00
2018-08-25T15:32:17.559Z,92.60
2018-08-25T15:34:45.084Z,91.30
2018-08-25T15:37:13.204Z,92.40
2018-08-25T15:39:41.167Z,91.90
2018-08-25T15:42:08.809Z,94.00
2018-08-25T15:44:36.989Z,93.30
2018-08-25T15:47:04.889Z,92.40
2018-08-25T15:49:32.823Z,93.70
2018-08-25T15:52:00.687Z,93.60
2018-08-25T15:54:28.924Z,93.20
2018-08-25T15:56:56.780Z,94.80
2018-08-25T15:59:24.398Z,95.10
2018-08-25T16:01:51.925Z,94.70
2018-08-25T16:04:19.463Z,94.00
2018-08-25T16:06:47.001Z,94.10
2018-08-25T16:09:14.585Z,93.90
2018-08-25T16:11:42.421Z,92.90
2018-08-25T16:14:10.227Z,91.90
2018-08-25T16:16:38.056Z,93.20
2018-08-25T16:19:06.322Z,92.50
2018-08-25T16:21:33.847Z,93.20
2018-08-25T16:24:01.753Z,94.30
2018-08-25T16:26:29.283Z,93.40
2018-08-25T16:28:57.083Z,93.40
2018-08-25T16:31:25.360Z,93.50
2018-08-25T16:33:53.558Z,94.60
2018-08-25T16:36:21.463Z,93.50
2018-08-25T16:38:49.463Z,94.70
2018-08-25T16:41:16.969Z,96.20
2018-08-25T16:43:44.834Z,98.10
2018-08-25T16:46:12.655Z,97.50
2018-08-25T16:48:40.289Z,99.80
2018-08-25T16:51:08.239Z,99.90
2018-08-25T16:53:36.148Z,99.90
2018-08-25T16:56:04.637Z,99.90
2018-08-25T16:58:32.126Z,99.90
2018-08-25T17:00:59.652Z,99.90
2018-08-25T17:03:27.243Z,99.90
2018-08-25T17:05:54.840Z,99.90
2018-08-25T17:08:22.900Z,99.90
2018-08-25T17:10:51.116Z,99.90
2018-08-25T17:13:19.166Z,99.90
2018-08-25T17:15:47.038Z,99.90
2018-08-25T17:18:15.142Z,99.90
2018-08-25T17:20:42.957Z,99.90
2018-08-25T17:23:11.239Z,99.90
2018-08-25T17:25:38.735Z,99.90
2018-08-25T17:28:06.793Z,99.90
2018-08-25T17:30:34.324Z,99.90
2018-08-25T17:33:02.396Z,99.90
2018-08-25T17:35:30.573Z,99.90
2018-08-25T17:37:58.406Z,99.90
2018-08-25T17:40:26.260Z,99.90
2018-08-25T17:42:53.876Z,99.90
2018-08-25T17:45:21.719Z,99.90
2018-08-25T17:47:49.255Z,99.90
2018-08-25T17:50:16.784Z,99.90
2018-08-25T17:52:44.712Z,99.90
2018-08-25T17:55:12.598Z,99.90
2018-08-25T17:57:41.296Z,99.90
2018-08-25T18:00:08.791Z,99.90
2018-08-25T18:02:36.438Z,99.90
2018-08-25T18:05:04.023Z,99.90
2018-08-25T18:07:32.239Z,99.90
2018-08-25T18:10:00.311Z,99.90
2018-08-25T18:12:28.213Z,99.90
2018-08-25T18:14:55.723Z,99.90
2018-08-25T18:17:23.646Z,99.90
2018-08-25T18:19:51.530Z,99.90
2018-08-25T18:22:19.469Z,99.90
2018-08-25T18:24:46.981Z,99.90
2018-08-25T18:27:14.481Z,99.90
2018-08-25T18:29:42.164Z,99.90
2018-08-25T18:32:10.120Z,99.90
2018-08-25T18:34:38.057Z,99.90
2018-08-25T18:37:05.734Z,99.90
2018-08-25T18:39:33.636Z,99.90
2018-08-25T18:42:01.156Z,99.90
2018-08-25T18:44:29.020Z,99.90
2018-08-25T18:46:56.523Z,99.90
2018-08-25T18:49:24.029Z,99.90
2018-08-25T18:51:51.868Z,99.90
2018-08-25T18:54:19.751Z,99.90
2018-08-25T18:56:47.654Z,99.90
2018-08-25T18:59:15.459Z,99.90
2018-08-25T19:01:43.028Z,99.90
2018-08-25T19:04:10.548Z,99.90
2018-08-25T19:06:38.389Z,99.90
2018-08-25T19:09:07.780Z,99.90
2018-08-25T19:11:35.596Z,99.90
2018-08-25T19:14:03.478Z,99.90
2018-08-25T19:16:31.921Z,99.90
2018-08-25T19:18:59.793Z,99.90
2018-08-25T19:21:27.667Z,99.90
2018-08-25T19:23:55.585Z,99.90
2018-08-25T19:26:23.078Z,99.90
2018-08-25T19:28:50.601Z,99.90
2018-08-25T19:31:18.751Z,99.90
2018-08-25T19:33:46.267Z,99.90
2018-08-25T19:36:14.126Z,99.90
2018-08-25T19:38:42.695Z,99.90
2018-08-25T19:41:11.117Z,99.90
2018-08-25T19:43:39.512Z,99.90
2018-08-25T19:46:07.719Z,99.90
2018-08-25T19:48:35.284Z,99.90
2018-08-25T19:51:04.196Z,99.90
2018-08-25T19:53:31.711Z,99.90
2018-08-25T19:55:59.644Z,99.90
2018-08-25T19:58:27.155Z,99.90
2018-08-25T20:00:54.652Z,99.90
2018-08-25T20:03:22.517Z,99.90
2018-08-25T20:05:50.896Z,99.90
2018-08-25T20:08:18.355Z,99.90
2018-08-25T20:10:46.419Z,99.90
2018-08-25T20:13:14.275Z,99.90
2018-08-25T20:15:42.278Z,99.90
2018-08-25T20:18:10.020Z,99.90
2018-08-25T20:20:38.024Z,99.90
2018-08-25T20:23:06.159Z,99.90
2018-08-25T20:25:33.748Z,99.90
2018-08-25T20:28:01.308Z,99.90
2018-08-25T20:30:29.209Z,99.90
2018-08-25T20:32:57.320Z,99.90
2018-08-25T20:35:24.856Z,99.90
2018-08-25T20:37:52.772Z,99.90
2018-08-25T20:40:20.678Z,99.90
2018-08-25T20:42:48.277Z,99.90
2018-08-25T20:45:16.351Z,99.90
2018-08-25T20:47:43.884Z,99.90
2018-08-25T20:50:11.429Z,99.90
2018-08-25T20:52:39.359Z,99.90
2018-08-25T20:55:07.245Z,99.90
2018-08-25T20:57:35.332Z,99.90
2018-08-25T21:00:03.370Z,99.90
2018-08-25T21:02:31.182Z,99.90
2018-08-25T21:04:58.764Z,99.90
2018-08-25T21:07:26.320Z,99.90
2018-08-25T21:09:54.174Z,99.90
2018-08-25T21:12:22.267Z,99.90
2018-08-25T21:14:49.764Z,99.90
2018-08-25T21:17:17.686Z,99.90
2018-08-25T21:19:45.225Z,99.90
2018-08-25T21:22:13.111Z,99.90
2018-08-25T21:24:40.796Z,99.90
2018-08-25T21:27:08.815Z,99.90
2018-08-25T21:29:36.647Z,99.90
2018-08-25T21:32:04.739Z,99.90
2018-08-25T21:34:32.236Z,99.90
2018-08-25T21:36:59.757Z,99.90
2018-08-25T21:39:27.313Z,99.90
2018-08-25T21:41:54.863Z,99.90
2018-08-25T21:44:22.895Z,99.90
2018-08-25T21:46:50.743Z,99.90
2018-08-25T21:49:18.360Z,99.90
2018-08-25T21:51:47.336Z,99.90
2018-08-25T21:54:14.969Z,99.90
2018-08-25T21:56:42.475Z,99.90
2018-08-25T21:59:10.498Z,99.90
2018-08-25T22:01:41.120Z,99.90
2018-08-25T22:04:09.636Z,99.90
2018-08-25T22:06:37.139Z,99.90
2018-08-25T22:09:07.534Z,99.90
2018-08-25T22:11:35.428Z,99.90
2018-08-25T22:14:02.956Z,99.90
2018-08-25T22:16:30.860Z,99.90
2018-08-25T22:18:58.398Z,99.90
2018-08-25T22:21:26.271Z,99.90
2018-08-25T22:23:54.076Z,99.90
2018-08-25T22:26:21.852Z,99.90
2018-08-25T22:28:50.081Z,99.90
2018-08-25T22:31:18.196Z,99.90
2018-08-25T22:33:46.038Z,99.90
2018-08-25T22:36:13.553Z,99.90
2018-08-25T22:38:41.359Z,99.90
2018-08-25T22:41:09.303Z,99.90
2018-08-25T22:43:37.124Z,99.90
2018-08-25T22:46:06.311Z,99.90
2018-08-25T22:48:33.836Z,99.90
2018-08-25T22:51:01.736Z,99.90
2018-08-25T22:53:29.255Z,99.90
2018-08-25T22:55:57.428Z,99.90
2018-08-25T22:58:24.924Z,99.90
2018-08-25T23:00:52.836Z,99.90
2018-08-25T23:03:20.356Z,99.90
2018-08-25T23:05:47.900Z,99.90
2018-08-25T23:08:16.159Z,99.90
2018-08-25T23:10:43.679Z,99.90
2018-08-25T23:13:11.715Z,99.90
2018-08-25T23:15:39.239Z,99.90
2018-08-25T23:18:07.135Z,99.90
2018-08-25T23:20:36.092Z,99.90
2018-08-25T23:23:03.604Z,99.90
2018-08-25T23:25:32.220Z,99.90
2018-08-25T23:27:59.728Z,99.90
2018-08-25T23:30:27.621Z,99.90
2018-08-25T23:32:55.452Z,99.90
2018-08-25T23:35:24.860Z,99.90
2018-08-25T23:37:52.372Z,99.90
2018-08-25T23:40:20.300Z,99.90
2018-08-25T23:42:47.793Z,99.90
2018-08-25T23:45:15.972Z,99.90
2018-08-25T23:47:43.479Z,99.90
2018-08-25T23:50:10.992Z,99.90
2018-08-25T23:52:39.124Z,99.90
2018-08-25T23:55:08.014Z,99.90
2018-08-25T23:57:35.909Z,99.90
